Modlin Airport Warsaw PL
ICAO: EPMO
IATA: WMI
Category: Large
Scheduled Services: No

Elevation: 341 ft
TransAlt. 18000 ft.

Airport Communications:
INFO:124.5

EPMO Zoom In..

Runways:

(A) RW 08 length 8202 ft width 148 ft
---- / hdg 77

(B) RW 26 length 8202 ft width 148 ft
---- / hdg 257

Location; EPMO
Day. 05 / Time. 16.30 Zulu
* QNH: 1009
* Temperature: 27° c. 80.6°f.
* Wind from: 240° Speed 07 kn.
Dewpoint: 16° c.
Visibility: 10 km or more,
No clouds below 1,500 m.
No cumulonimbus, and no significant weather
fenomena in the aerodrome or its vicinity.

EPMO 051630Z 24007KT CAVOK 27/16 Q1009

Going to: --> -->


Wind From 240°
Speed 07 kn.

 
 
jpsmedia worldairports.se 2020   terms of use